Impacts METAR Board
IDs:

KLHB - Hearne Muni, TX, US

Updated at: 0500 UTC 19 Aug 2019
Potential Impact None Slight Moderate High
Time 18/17Z 18/18Z 18/19Z 18/20Z 18/21Z 18/22Z 18/23Z 19/00Z 19/01Z 19/02Z 19/03Z 19/04Z 19/05Z
Temp93 95 97 98 100 100 99 98 92 90 88 86 84
Dewpt76 75 74 73 74 74 73 74 78 77 76 76 76
Altim29.93 29.92 29.91 29.89 29.86 29.85 29.85 29.85 29.85 29.87 29.89 29.92 29.93
VIS10 10 10 10 10 10 10 10 10 10 10 10 10
CIG-- -- -- -- -- -- -- -- -- -- -- -- --
CoverSCTCLRCLRCLRCLRSCTCLRCLRCLRCLRCLRCLRCLR
FltCatVFRVFRVFRVFRVFRVFRVFRVFRVFRVFRVFRVFRVFR
WX--------------------------
WDir170170170190140150130130130140140150140
WSpd10 11 11 7 11 7 5 4 7 7 6 8 7
WGst15 15 16 -- -- -- -- -- -- -- -- -- --
Raw hourly METARs
KLHB 181655Z AUTO 17010G15KT 10SM SCT043 34/24 A2993 RMK AO2 T03380242
KLHB 181755Z AUTO 17011G15KT 10SM CLR 35/24 A2992 RMK AO2 T03480237 10348 20250
KLHB 181855Z AUTO 17011G16KT 10SM CLR 36/24 A2991 RMK AO2 T03610235
KLHB 181955Z AUTO 19007KT 10SM CLR 37/23 A2989 RMK AO2 T03680230
KLHB 182055Z AUTO 14011KT 10SM CLR 38/23 A2986 RMK AO2 T03750232
KLHB 182155Z AUTO 15007KT 10SM SCT070 38/23 A2985 RMK AO2 T03750232
KLHB 182255Z AUTO 13005KT 10SM CLR 37/23 A2985 RMK AO2 T03720226
KLHB 182355Z AUTO 13004KT 10SM CLR 37/23 A2985 RMK AO2 T03650231 10377 20348
KLHB 190055Z AUTO 13007KT 10SM CLR 34/25 A2985 RMK AO2 T03350253
KLHB 190155Z AUTO 14007KT 10SM CLR 32/25 A2987 RMK AO2 T03200250
KLHB 190255Z AUTO 14006KT 10SM CLR 31/24 A2989 RMK AO2 T03120244
KLHB 190355Z AUTO 15008KT 10SM CLR 30/25 A2992 RMK AO2 T03000245
KLHB 190455Z AUTO 14007KT 10SM CLR 29/25 A2993 RMK AO2 T02880245



Page loaded:  05:46 UTC  |   10:46 PM Pacific  |   11:46 PM Mountain  |   12:46 AM Central  |   01:46 AM Eastern

 

ADVISORIES

FORECASTS

FORECASTS

OBSERVATIONS

USER TOOLS

ABOUT US